Time;durP1;ratioP1;P1;durP2;ratioP2;P2;SDS_P1;SDS_P2;PMS_P1;PMS_P2;Temp;Humidity;BMP_temperature;BMP_pressure;BME280_temperature;BME280_humidity;BME280_pressure;Samples;Min_cycle;Max_cycle;Signal;HPM_P1;HPM_P2
2019/10/03 00:00:03;;;;;;;4.8;3.1;;;;;;;;;;;;;
2019/10/03 00:02:31;;;;;;;5.6;2.9;;;;;;;;;;;;;
2019/10/03 00:04:53;;;;;;;4;2.9;;;;;;;;;;;;;
2019/10/03 00:07:18;;;;;;;7;3.1;;;;;;;;;;;;;
2019/10/03 00:09:43;;;;;;;5.2;3.2;;;;;;;;;;;;;
2019/10/03 00:12:08;;;;;;;5.3;3.3;;;;;;;;;;;;;
2019/10/03 00:14:33;;;;;;;8;3.9;;;;;;;;;;;;;
2019/10/03 00:16:59;;;;;;;7;3.7;;;;;;;;;;;;;
2019/10/03 00:19:24;;;;;;;5.7;3.5;;;;;;;;;;;;;
2019/10/03 00:21:49;;;;;;;5.3;3.6;;;;;;;;;;;;;
2019/10/03 00:26:39;;;;;;;5.2;3.8;;;;;;;;;;;;;
2019/10/03 00:29:04;;;;;;;6.1;3.9;;;;;;;;;;;;;
2019/10/03 00:31:29;;;;;;;6.7;4.2;;;;;;;;;;;;;
2019/10/03 00:33:54;;;;;;;6.7;3.7;;;;;;;;;;;;;
2019/10/03 00:36:19;;;;;;;4.7;3.6;;;;;;;;;;;;;
2019/10/03 00:38:44;;;;;;;5.8;3.7;;;;;;;;;;;;;
2019/10/03 00:41:09;;;;;;;6.4;3.9;;;;;;;;;;;;;
2019/10/03 00:43:34;;;;;;;6.4;4;;;;;;;;;;;;;
2019/10/03 00:46:00;;;;;;;6.1;4.2;;;;;;;;;;;;;
2019/10/03 00:48:25;;;;;;;6.3;4.5;;;;;;;;;;;;;
2019/10/03 00:50:50;;;;;;;8.3;4.4;;;;;;;;;;;;;
2019/10/03 00:53:15;;;;;;;7;4.6;;;;;;;;;;;;;
2019/10/03 00:55:40;;;;;;;5.4;4.1;;;;;;;;;;;;;
2019/10/03 00:58:05;;;;;;;6.4;4.1;;;;;;;;;;;;;
2019/10/03 01:00:30;;;;;;;7.2;4.1;;;;;;;;;;;;;
2019/10/03 01:02:55;;;;;;;5.6;3.6;;;;;;;;;;;;;
2019/10/03 01:05:20;;;;;;;7.4;3.4;;;;;;;;;;;;;
2019/10/03 01:07:46;;;;;;;8.3;3.8;;;;;;;;;;;;;
2019/10/03 01:10:11;;;;;;;6.5;3.5;;;;;;;;;;;;;
2019/10/03 01:12:36;;;;;;;5.7;3.8;;;;;;;;;;;;;
2019/10/03 01:15:01;;;;;;;6.7;3.7;;;;;;;;;;;;;
2019/10/03 01:17:26;;;;;;;4.3;3.3;;;;;;;;;;;;;
2019/10/03 01:19:51;;;;;;;5.3;3.4;;;;;;;;;;;;;
2019/10/03 01:22:16;;;;;;;6.4;3.5;;;;;;;;;;;;;
2019/10/03 01:24:41;;;;;;;5.7;3.7;;;;;;;;;;;;;
2019/10/03 01:27:06;;;;;;;4.8;3.3;;;;;;;;;;;;;
2019/10/03 01:29:32;;;;;;;5;3.2;;;;;;;;;;;;;
2019/10/03 01:31:57;;;;;;;4.1;3.4;;;;;;;;;;;;;
2019/10/03 01:34:22;;;;;;;6.1;3.6;;;;;;;;;;;;;
2019/10/03 01:36:47;;;;;;;5.7;3.8;;;;;;;;;;;;;
2019/10/03 01:39:12;;;;;;;5.5;3.7;;;;;;;;;;;;;
2019/10/03 01:41:37;;;;;;;7.5;3.7;;;;;;;;;;;;;
2019/10/03 01:44:02;;;;;;;6.4;3.7;;;;;;;;;;;;;
2019/10/03 01:46:27;;;;;;;7;3.8;;;;;;;;;;;;;
2019/10/03 01:48:52;;;;;;;5.2;3.5;;;;;;;;;;;;;
2019/10/03 01:51:17;;;;;;;4.9;3.5;;;;;;;;;;;;;
2019/10/03 01:53:43;;;;;;;4.6;3.6;;;;;;;;;;;;;
2019/10/03 01:56:08;;;;;;;5.8;3.6;;;;;;;;;;;;;
2019/10/03 01:58:33;;;;;;;4.5;3.4;;;;;;;;;;;;;
2019/10/03 02:00:58;;;;;;;4.5;3.6;;;;;;;;;;;;;
2019/10/03 02:03:23;;;;;;;4.7;3.5;;;;;;;;;;;;;
2019/10/03 02:05:48;;;;;;;6.7;3.6;;;;;;;;;;;;;
2019/10/03 02:08:13;;;;;;;5.9;3.4;;;;;;;;;;;;;
2019/10/03 02:11:20;;;;;;;5.6;3.7;;;;;;;;;;;;;
2019/10/03 02:13:03;;;;;;;6.1;3.9;;;;;;;;;;;;;
2019/10/03 02:15:29;;;;;;;5.9;3.4;;;;;;;;;;;;;
2019/10/03 02:17:54;;;;;;;5.9;3.7;;;;;;;;;;;;;
2019/10/03 02:20:19;;;;;;;7.1;3.6;;;;;;;;;;;;;
2019/10/03 02:22:44;;;;;;;5.7;3.4;;;;;;;;;;;;;
2019/10/03 02:25:09;;;;;;;6.2;3.6;;;;;;;;;;;;;
2019/10/03 02:27:34;;;;;;;5.7;3.4;;;;;;;;;;;;;
2019/10/03 02:29:59;;;;;;;6.1;3.7;;;;;;;;;;;;;
2019/10/03 02:32:24;;;;;;;6.8;3.4;;;;;;;;;;;;;
2019/10/03 02:34:49;;;;;;;4.9;3.1;;;;;;;;;;;;;
2019/10/03 02:37:14;;;;;;;6.8;3.5;;;;;;;;;;;;;
2019/10/03 02:39:39;;;;;;;5.8;3.1;;;;;;;;;;;;;
2019/10/03 02:42:05;;;;;;;6.3;3.5;;;;;;;;;;;;;
2019/10/03 02:44:30;;;;;;;5.6;3.5;;;;;;;;;;;;;
2019/10/03 02:46:55;;;;;;;6.7;3.7;;;;;;;;;;;;;
2019/10/03 02:49:20;;;;;;;5.4;3.3;;;;;;;;;;;;;
2019/10/03 02:51:45;;;;;;;6.4;3.2;;;;;;;;;;;;;
2019/10/03 02:54:10;;;;;;;6;3.6;;;;;;;;;;;;;
2019/10/03 02:56:35;;;;;;;7.2;3.6;;;;;;;;;;;;;
2019/10/03 02:59:00;;;;;;;6.7;3.4;;;;;;;;;;;;;
2019/10/03 03:01:25;;;;;;;6.1;3.4;;;;;;;;;;;;;
2019/10/03 03:03:50;;;;;;;7.4;3.9;;;;;;;;;;;;;
2019/10/03 03:06:16;;;;;;;6.3;3.4;;;;;;;;;;;;;
2019/10/03 03:08:41;;;;;;;7;4;;;;;;;;;;;;;
2019/10/03 03:11:06;;;;;;;6.4;3.6;;;;;;;;;;;;;
2019/10/03 03:13:31;;;;;;;10.6;3.5;;;;;;;;;;;;;
2019/10/03 03:15:56;;;;;;;7.3;4;;;;;;;;;;;;;
2019/10/03 03:18:24;;;;;;;8.7;3.5;;;;;;;;;;;;;
2019/10/03 03:20:50;;;;;;;6.7;3.4;;;;;;;;;;;;;
2019/10/03 03:23:22;;;;;;;8.4;4;;;;;;;;;;;;;
2019/10/03 03:25:37;;;;;;;6.8;3.8;;;;;;;;;;;;;
2019/10/03 03:28:02;;;;;;;6.7;4;;;;;;;;;;;;;
2019/10/03 03:30:27;;;;;;;7.8;3.8;;;;;;;;;;;;;
2019/10/03 03:32:52;;;;;;;7;4.1;;;;;;;;;;;;;
2019/10/03 03:35:17;;;;;;;6.3;3.8;;;;;;;;;;;;;
2019/10/03 03:37:42;;;;;;;6;3.6;;;;;;;;;;;;;
2019/10/03 03:40:07;;;;;;;6.1;3.6;;;;;;;;;;;;;
2019/10/03 03:42:32;;;;;;;6.9;3.8;;;;;;;;;;;;;
2019/10/03 03:44:57;;;;;;;6.7;3.4;;;;;;;;;;;;;
2019/10/03 03:47:22;;;;;;;7.2;3.8;;;;;;;;;;;;;
2019/10/03 03:49:48;;;;;;;4.2;3.2;;;;;;;;;;;;;
2019/10/03 03:52:13;;;;;;;6.1;3.2;;;;;;;;;;;;;
2019/10/03 03:54:38;;;;;;;6.7;3.4;;;;;;;;;;;;;
2019/10/03 03:57:03;;;;;;;6.4;3.3;;;;;;;;;;;;;
2019/10/03 03:59:28;;;;;;;5.9;3.3;;;;;;;;;;;;;
2019/10/03 04:02:28;;;;;;;6.7;3.5;;;;;;;7.34;93.22363;1005.951;;;;
2019/10/03 04:04:53;;;;;;;5.2;3.7;;;;;;;7.34;93.08789;1005.999;;;;
2019/10/03 04:07:18;;;;;;;6.4;3.7;;;;;;;7.27;93.33301;1005.931;;;;
2019/10/03 04:09:43;;;;;;;4.4;3.5;;;;;;;7.21;93.38965;1005.967;;;;
2019/10/03 04:12:08;;;;;;;6.5;3.9;;;;;;;7.22;93.5166;1005.966;;;;
2019/10/03 04:14:33;;;;;;;5.3;3.4;;;;;;;7.26;93.36523;1005.963;;;;
2019/10/03 04:16:58;;;;;;;5.7;3.4;;;;;;;7.28;93.30078;1006.01;;;;
2019/10/03 04:19:23;;;;;;;7.1;3.7;;;;;;;7.21;93.44629;1006.036;;;;
2019/10/03 04:21:48;;;;;;;5.8;3.4;;;;;;;7.26;93.26465;1006.007;;;;
2019/10/03 04:24:13;;;;;;;7.6;3.8;;;;;;;7.29;93.04395;1005.993;;;;
2019/10/03 04:26:38;;;;;;;4.4;3.3;;;;;;;7.25;93.42969;1006.022;;;;
2019/10/03 04:29:04;;;;;;;4.9;3.7;;;;;;;7.29;93.15723;1006.065;;;;
2019/10/03 04:31:29;;;;;;;6;4.1;;;;;;;7.4;92.81738;1006.069;;;;
2019/10/03 04:33:54;;;;;;;7.2;3.5;;;;;;;7.27;93.29883;1006.094;;;;
2019/10/03 04:36:19;;;;;;;5.9;3.4;;;;;;;7.2;93.4668;1006.161;;;;
2019/10/03 04:38:44;;;;;;;6.7;3.7;;;;;;;7.2;93.54688;1006.186;;;;
2019/10/03 04:41:09;;;;;;;7.1;3.7;;;;;;;7.15;93.70508;1006.192;;;;
2019/10/03 04:43:34;;;;;;;5.1;3.6;;;;;;;7.19;93.58789;1006.189;;;;
2019/10/03 04:45:59;;;;;;;7.7;3.6;;;;;;;7.25;93.34961;1006.212;;;;
2019/10/03 04:48:24;;;;;;;6.1;3.8;;;;;;;7.2;93.22852;1006.196;;;;
2019/10/03 04:50:50;;;;;;;5.6;3.9;;;;;;;7.26;93.08105;1006.148;;;;
2019/10/03 04:53:15;;;;;;;7.2;3.7;;;;;;;7.26;93.17188;1006.048;;;;
2019/10/03 04:55:40;;;;;;;6.6;4;;;;;;;7.23;93.16602;1006.109;;;;
2019/10/03 04:58:05;;;;;;;5.7;3.5;;;;;;;7.24;93.28223;1006.166;;;;
2019/10/03 05:00:30;;;;;;;7;3.5;;;;;;;7.27;92.96973;1006.18;;;;
2019/10/03 05:02:56;;;;;;;8.5;3.9;;;;;;;7.28;92.96191;1006.242;;;;
2019/10/03 05:05:25;;;;;;;6.5;3.8;;;;;;;7.28;92.91504;1006.259;;;;
2019/10/03 05:07:45;;;;;;;5.5;3.8;;;;;;;7.33;92.73145;1006.214;;;;
2019/10/03 05:10:11;;;;;;;6.5;3.7;;;;;;;7.28;92.8125;1006.277;;;;
2019/10/03 05:12:36;;;;;;;6.7;3.8;;;;;;;7.31;92.85254;1006.322;;;;
2019/10/03 05:15:01;;;;;;;5.9;3.6;;;;;;;7.32;92.71973;1006.319;;;;
2019/10/03 05:17:26;;;;;;;8;4;;;;;;;7.33;92.53027;1006.332;;;;
2019/10/03 05:19:51;;;;;;;5.5;3.3;;;;;;;7.44;91.97461;1006.376;;;;
2019/10/03 05:22:16;;;;;;;4.9;3.5;;;;;;;7.39;92.17871;1006.347;;;;
2019/10/03 05:24:41;;;;;;;4.2;3.1;;;;;;;7.34;92.39453;1006.363;;;;
2019/10/03 05:27:06;;;;;;;7.4;3.7;;;;;;;7.37;92.83203;1006.315;;;;
2019/10/03 05:29:31;;;;;;;6.4;3.8;;;;;;;7.42;92.24121;1006.376;;;;
2019/10/03 05:31:56;;;;;;;5.3;3.3;;;;;;;7.46;92.26074;1006.388;;;;
2019/10/03 05:34:21;;;;;;;6.3;3.4;;;;;;;7.52;92.16016;1006.338;;;;
2019/10/03 05:36:47;;;;;;;5.7;3.4;;;;;;;7.6;91.59766;1006.338;;;;
2019/10/03 05:39:12;;;;;;;4.4;3.1;;;;;;;7.71;91.01953;1006.355;;;;
2019/10/03 05:41:37;;;;;;;7.1;3.7;;;;;;;7.67;91.54492;1006.313;;;;
2019/10/03 05:44:02;;;;;;;6.9;3.7;;;;;;;7.72;91.29492;1006.373;;;;
2019/10/03 05:46:30;;;;;;;6;3.7;;;;;;;7.69;90.99316;1006.334;;;;
2019/10/03 05:48:52;;;;;;;6.1;3.1;;;;;;;7.79;90.93262;1006.375;;;;
2019/10/03 05:51:17;;;;;;;6.7;3.5;;;;;;;7.9;90.53418;1006.443;;;;
2019/10/03 05:53:42;;;;;;;4.6;3;;;;;;;7.88;90.39453;1006.459;;;;
2019/10/03 05:56:07;;;;;;;6.6;3.3;;;;;;;7.82;90.75879;1006.548;;;;
2019/10/03 05:58:33;;;;;;;5.6;3.4;;;;;;;7.94;90.20313;1006.551;;;;
2019/10/03 06:00:59;;;;;;;6.3;3.3;;;;;;;7.96;90.22949;1006.499;;;;
2019/10/03 06:03:23;;;;;;;6.4;3.3;;;;;;;8.04;89.53906;1006.465;;;;
2019/10/03 06:05:47;;;;;;;5.6;3.1;;;;;;;8.07;89.66211;1006.518;;;;
2019/10/03 06:08:13;;;;;;;7.1;3.6;;;;;;;8.16;89.56543;1006.497;;;;
2019/10/03 06:10:38;;;;;;;6.8;3.8;;;;;;;8.25;88.91211;1006.482;;;;
2019/10/03 06:13:03;;;;;;;7.6;3.4;;;;;;;8.15;88.94824;1006.539;;;;
2019/10/03 06:15:28;;;;;;;7.9;3.7;;;;;;;8.27;88.91602;1006.499;;;;
2019/10/03 06:17:53;;;;;;;5.6;3.2;;;;;;;8.28;88.54199;1006.547;;;;
2019/10/03 06:20:18;;;;;;;6.5;3.4;;;;;;;8.31;88.82227;1006.505;;;;
2019/10/03 06:22:43;;;;;;;5;3.2;;;;;;;8.4;88.18945;1006.536;;;;
2019/10/03 06:25:31;;;;;;;5.1;3.2;;;;;;;8.33;88.73535;1006.594;;;;
2019/10/03 06:27:56;;;;;;;6.5;3.2;;;;;;;8.45;87.83594;1006.602;;;;
2019/10/03 06:30:21;;;;;;;7.1;3.2;;;;;;;8.42;87.72852;1006.541;;;;
2019/10/03 06:32:46;;;;;;;6.7;3.2;;;;;;;8.59;86.44336;1006.578;;;;
2019/10/03 06:35:11;;;;;;;5.8;2.6;;;;;;;8.54;86.21582;1006.562;;;;
2019/10/03 06:37:36;;;;;;;6.4;2.9;;;;;;;8.53;86.17773;1006.576;;;;
2019/10/03 06:40:01;;;;;;;7.4;3.2;;;;;;;8.46;86.60938;1006.628;;;;
2019/10/03 06:42:26;;;;;;;6.1;2.6;;;;;;;8.6;86.16992;1006.618;;;;
2019/10/03 06:44:52;;;;;;;5.8;2.6;;;;;;;8.72;85.47656;1006.615;;;;
2019/10/03 06:47:17;;;;;;;5.6;2.6;;;;;;;8.86;84.97852;1006.705;;;;
2019/10/03 06:49:42;;;;;;;5.6;2.6;;;;;;;8.88;84.8457;1006.637;;;;
2019/10/03 06:52:07;;;;;;;6;2.7;;;;;;;9.22;83.7832;1006.654;;;;
2019/10/03 06:54:32;;;;;;;5.6;2.5;;;;;;;9.61;82.25879;1006.616;;;;
2019/10/03 06:56:59;;;;;;;8.8;2.4;;;;;;;9.95;80.14063;1006.581;;;;
2019/10/03 06:59:23;;;;;;;5.4;2.1;;;;;;;10;79.86523;1006.619;;;;
2019/10/03 07:01:47;;;;;;;5.3;2.4;;;;;;;10.05;79.18555;1006.584;;;;
2019/10/03 07:04:13;;;;;;;4.6;2.5;;;;;;;9.94;79.97852;1006.633;;;;
2019/10/03 07:06:38;;;;;;;4.9;2.4;;;;;;;9.93;79.13184;1006.696;;;;
2019/10/03 07:09:04;;;;;;;5.9;2.5;;;;;;;9.95;79.66016;1006.746;;;;
2019/10/03 07:11:28;;;;;;;6.2;2.6;;;;;;;9.96;79.13672;1006.755;;;;
2019/10/03 07:13:53;;;;;;;4.7;2.3;;;;;;;9.96;79.20508;1006.762;;;;
2019/10/03 07:16:18;;;;;;;6.7;2.6;;;;;;;10.12;78.69727;1006.805;;;;
2019/10/03 07:18:44;;;;;;;4.9;2.5;;;;;;;10.26;77.98926;1006.797;;;;
2019/10/03 07:21:09;;;;;;;6.9;2.5;;;;;;;11.22;76.20313;1006.88;;;;
2019/10/03 07:23:33;;;;;;;4.7;2.2;;;;;;;11.97;73.11816;1006.976;;;;
2019/10/03 07:25:59;;;;;;;5.9;2.2;;;;;;;12.27;69.46875;1007.017;;;;
2019/10/03 07:28:24;;;;;;;6.9;2.3;;;;;;;12.53;68.71582;1006.972;;;;
2019/10/03 07:31:01;;;;;;;5.8;2.1;;;;;;;13.2;66.09277;1007.047;;;;
2019/10/03 07:33:21;;;;;;;4.3;1.9;;;;;;;13.6;64.24023;1007.111;;;;
2019/10/03 07:35:40;;;;;;;6.8;2;;;;;;;14.84;61.65918;1007.154;;;;
2019/10/03 07:38:04;;;;;;;5.8;1.8;;;;;;;15.7;58.02734;1007.164;;;;
2019/10/03 07:40:29;;;;;;;5.1;2;;;;;;;15.24;59.20508;1007.154;;;;
2019/10/03 07:42:54;;;;;;;5.6;1.9;;;;;;;14.95;59.15332;1007.221;;;;
2019/10/03 07:45:19;;;;;;;5.1;2.5;;;;;;;15.6;57.44727;1007.248;;;;
2019/10/03 07:47:44;;;;;;;5.8;1.8;;;;;;;14.9;59.41309;1007.212;;;;
2019/10/03 07:50:09;;;;;;;4.5;1.7;;;;;;;15.4;58.4502;1007.293;;;;
2019/10/03 07:52:34;;;;;;;4.6;1.8;;;;;;;16.24;55.02539;1007.287;;;;
2019/10/03 07:55:00;;;;;;;3.6;1.6;;;;;;;15.33;57.00488;1007.274;;;;
2019/10/03 07:57:25;;;;;;;6;2;;;;;;;15.81;56.46582;1007.316;;;;
2019/10/03 07:59:50;;;;;;;5.4;1.8;;;;;;;17.22;52.10156;1007.409;;;;
2019/10/03 08:02:15;;;;;;;5.2;1.9;;;;;;;16.54;54.30762;1007.429;;;;
2019/10/03 08:04:40;;;;;;;3.6;1.6;;;;;;;16.61;52.38867;1007.44;;;;
2019/10/03 08:07:05;;;;;;;5.5;1.6;;;;;;;16.45;53.46191;1007.381;;;;
2019/10/03 08:09:30;;;;;;;4.5;1.8;;;;;;;17.58;50.83008;1007.277;;;;
2019/10/03 08:11:55;;;;;;;4.4;1.6;;;;;;;16.42;53.25977;1007.371;;;;
2019/10/03 08:14:20;;;;;;;7.3;1.8;;;;;;;15.79;55.02539;1007.304;;;;
2019/10/03 08:16:45;;;;;;;5;1.8;;;;;;;16.23;54.38574;1007.262;;;;
2019/10/03 08:19:11;;;;;;;7.8;2.1;;;;;;;16.13;53.60742;1007.292;;;;
2019/10/03 08:21:36;;;;;;;5.6;2;;;;;;;14.45;58.69336;1007.321;;;;
2019/10/03 08:24:01;;;;;;;6.6;1.9;;;;;;;13.78;61.33691;1007.32;;;;
2019/10/03 08:26:26;;;;;;;5.5;2.2;;;;;;;13.63;61.73047;1007.275;;;;
2019/10/03 08:28:51;;;;;;;7.1;2;;;;;;;12.97;63.91602;1007.273;;;;
2019/10/03 08:31:16;;;;;;;6.4;2;;;;;;;12.83;64.96582;1007.278;;;;
2019/10/03 08:33:41;;;;;;;4.5;2;;;;;;;13.5;63.14063;1007.272;;;;
2019/10/03 08:36:06;;;;;;;5.9;2;;;;;;;13.24;63.5293;1007.205;;;;
2019/10/03 08:38:32;;;;;;;5.4;2.2;;;;;;;13.3;63.83789;1007.307;;;;
2019/10/03 08:40:56;;;;;;;4.8;1.9;;;;;;;13.94;62.37402;1007.314;;;;
2019/10/03 08:43:22;;;;;;;6.3;2;;;;;;;14.04;61.7998;1007.288;;;;
2019/10/03 08:45:47;;;;;;;5.7;2.2;;;;;;;13.61;62.82227;1007.244;;;;
2019/10/03 08:48:12;;;;;;;5.4;1.9;;;;;;;13.33;64.08398;1007.223;;;;
2019/10/03 08:50:37;;;;;;;4.4;1.8;;;;;;;13.92;62.2666;1007.249;;;;
2019/10/03 08:53:02;;;;;;;5.3;1.8;;;;;;;13.94;62.23535;1007.24;;;;
2019/10/03 08:55:27;;;;;;;7.4;2.6;;;;;;;14.16;61.43555;1007.206;;;;
2019/10/03 08:57:52;;;;;;;6.1;2;;;;;;;13.33;63.63477;1007.212;;;;
2019/10/03 09:00:17;;;;;;;4.2;2.1;;;;;;;13.11;64.8252;1007.243;;;;
2019/10/03 09:05:07;;;;;;;6.5;2.3;;;;;;;13.99;62.60156;1007.214;;;;
2019/10/03 09:07:32;;;;;;;6.5;2;;;;;;;13.69;63.54883;1007.232;;;;
2019/10/03 09:09:58;;;;;;;6.6;2;;;;;;;13.42;64.28125;1007.228;;;;
2019/10/03 09:12:23;;;;;;;5.5;2.1;;;;;;;13.41;64.36035;1007.223;;;;
2019/10/03 09:14:48;;;;;;;5.3;2.2;;;;;;;12.92;65.54395;1007.263;;;;
2019/10/03 09:17:13;;;;;;;5.2;2;;;;;;;13.26;65.17871;1007.268;;;;
2019/10/03 09:19:38;;;;;;;5.9;2;;;;;;;13.76;62.59082;1007.241;;;;
2019/10/03 09:22:03;;;;;;;5;2.1;;;;;;;13.72;62.20313;1007.246;;;;
2019/10/03 09:24:35;;;;;;;6.2;2.2;;;;;;;13.8;62.43457;1007.286;;;;
2019/10/03 09:26:53;;;;;;;5;1.8;;;;;;;13.25;64.82031;1007.24;;;;
2019/10/03 09:29:18;;;;;;;6.8;2.1;;;;;;;12.98;65.32324;1007.221;;;;
2019/10/03 09:31:44;;;;;;;5.1;2.3;;;;;;;12.72;66.46777;1007.291;;;;
2019/10/03 09:34:09;;;;;;;4.9;2.2;;;;;;;13.01;66.39746;1007.222;;;;
2019/10/03 09:36:34;;;;;;;6;2.4;;;;;;;13.12;65.72363;1007.228;;;;
2019/10/03 09:38:59;;;;;;;6.5;2.3;;;;;;;13.29;65.33398;1007.259;;;;
2019/10/03 09:41:25;;;;;;;5.9;2.4;;;;;;;13.78;63.78125;1007.204;;;;
2019/10/03 09:43:50;;;;;;;6.4;2.1;;;;;;;13.86;63.12402;1007.189;;;;
2019/10/03 09:46:15;;;;;;;6.2;1.8;;;;;;;13.98;63.2002;1007.192;;;;
2019/10/03 09:48:40;;;;;;;5;2;;;;;;;14.46;61.88184;1007.171;;;;
2019/10/03 09:51:05;;;;;;;6.3;2.5;;;;;;;14.29;61.46582;1007.14;;;;
2019/10/03 09:53:30;;;;;;;6.4;2;;;;;;;15.24;58.50977;1007.085;;;;
2019/10/03 09:55:56;;;;;;;4.5;2;;;;;;;15.6;57.46973;1007.107;;;;
2019/10/03 09:58:21;;;;;;;5.2;1.9;;;;;;;15.29;58.03027;1007.05;;;;
2019/10/03 10:00:46;;;;;;;6.3;2.1;;;;;;;15.03;59.33789;1007.05;;;;
2019/10/03 10:03:12;;;;;;;4.8;1.7;;;;;;;15.77;57.95508;1006.979;;;;
2019/10/03 10:05:37;;;;;;;6.9;1.9;;;;;;;16.28;55.93359;1007.047;;;;
2019/10/03 10:08:02;;;;;;;6.4;2;;;;;;;16.83;54.08887;1006.975;;;;
2019/10/03 10:10:27;;;;;;;4.1;1.7;;;;;;;18.03;50.41602;1006.906;;;;
2019/10/03 10:12:52;;;;;;;6.3;1.8;;;;;;;18.59;48.70801;1006.931;;;;
2019/10/03 10:15:17;;;;;;;7.7;2.1;;;;;;;16.34;54.6084;1006.905;;;;
2019/10/03 10:17:42;;;;;;;7.7;1.9;;;;;;;16.06;55.52441;1006.993;;;;
2019/10/03 10:20:08;;;;;;;4.3;1.7;;;;;;;16.1;55.58594;1007.021;;;;
2019/10/03 10:22:33;;;;;;;4.6;1.8;;;;;;;15.53;56.54492;1007.001;;;;
2019/10/03 10:24:58;;;;;;;3.6;1.7;;;;;;;15.37;57.26563;1006.929;;;;
2019/10/03 10:27:24;;;;;;;5;1.9;;;;;;;14.81;59.50391;1006.872;;;;
2019/10/03 10:29:49;;;;;;;4;2;;;;;;;14.66;59.99219;1006.801;;;;
2019/10/03 10:32:14;;;;;;;5.2;1.9;;;;;;;14.58;61.00977;1006.782;;;;
2019/10/03 10:34:39;;;;;;;5.8;2;;;;;;;14.64;59.79395;1006.748;;;;
2019/10/03 10:37:04;;;;;;;5.3;1.8;;;;;;;13.68;63.60547;1006.739;;;;
2019/10/03 10:39:29;;;;;;;6;2;;;;;;;13.1;64.90332;1006.695;;;;
2019/10/03 10:41:54;;;;;;;5.6;2;;;;;;;13.59;63.91602;1006.623;;;;
2019/10/03 10:44:20;;;;;;;5.7;2;;;;;;;13.72;63.72656;1006.667;;;;
2019/10/03 10:46:45;;;;;;;5.5;2.1;;;;;;;13.57;64.51074;1006.667;;;;
2019/10/03 10:49:10;;;;;;;5.6;2.1;;;;;;;13.64;63.78418;1006.632;;;;
2019/10/03 10:51:35;;;;;;;7.7;2.1;;;;;;;14.16;63.16699;1006.615;;;;
2019/10/03 10:54:00;;;;;;;7.2;1.9;;;;;;;14.64;61.11133;1006.508;;;;
2019/10/03 10:56:25;;;;;;;8;2.2;;;;;;;14.96;59.88281;1006.527;;;;
2019/10/03 10:58:50;;;;;;;5.6;1.7;;;;;;;14.76;60.69922;1006.451;;;;
2019/10/03 11:01:15;;;;;;;5.5;1.9;;;;;;;14.55;61.41016;1006.459;;;;
2019/10/03 11:03:41;;;;;;;5.8;2;;;;;;;14.33;62.89258;1006.423;;;;
2019/10/03 11:06:06;;;;;;;7.1;2.1;;;;;;;14.57;61.99023;1006.389;;;;
2019/10/03 11:08:31;;;;;;;4.5;2.1;;;;;;;14.24;63.09961;1006.423;;;;
2019/10/03 11:10:56;;;;;;;5.6;1.8;;;;;;;14.77;61.00098;1006.384;;;;
2019/10/03 11:13:21;;;;;;;6.2;2;;;;;;;15.22;59.53711;1006.366;;;;
2019/10/03 11:15:46;;;;;;;6.5;2;;;;;;;15.1;59.58887;1006.349;;;;
2019/10/03 11:18:11;;;;;;;5.2;2;;;;;;;15.21;59.31543;1006.3;;;;
2019/10/03 11:20:37;;;;;;;6.1;1.8;;;;;;;14.87;59.4209;1006.239;;;;
2019/10/03 11:23:02;;;;;;;5.7;2;;;;;;;15.14;59.05176;1006.147;;;;
2019/10/03 11:25:27;;;;;;;7.7;2;;;;;;;15.55;57.8916;1006.146;;;;
2019/10/03 11:27:52;;;;;;;6;1.9;;;;;;;15.56;58.03027;1006.18;;;;
2019/10/03 11:30:17;;;;;;;5.9;1.7;;;;;;;15.42;57.79395;1006.102;;;;
2019/10/03 11:32:43;;;;;;;7;1.9;;;;;;;15.28;58.42285;1006.093;;;;
2019/10/03 11:35:08;;;;;;;5.5;1.7;;;;;;;15.31;58.55371;1006.11;;;;
2019/10/03 11:37:33;;;;;;;6.1;1.7;;;;;;;14.96;59.44336;1005.992;;;;
2019/10/03 11:39:58;;;;;;;5.7;1.8;;;;;;;15.44;58.32715;1006.028;;;;
2019/10/03 11:42:23;;;;;;;7.6;1.9;;;;;;;15.43;58.40723;1005.968;;;;
2019/10/03 11:44:48;;;;;;;4.6;1.6;;;;;;;15.22;58.98145;1005.956;;;;
2019/10/03 11:47:13;;;;;;;5.8;1.8;;;;;;;14.76;59.99414;1005.86;;;;
2019/10/03 11:49:39;;;;;;;6.2;2.1;;;;;;;14.52;61.05859;1005.806;;;;
2019/10/03 11:52:04;;;;;;;4.4;1.6;;;;;;;14.76;60.62988;1005.779;;;;
2019/10/03 11:54:29;;;;;;;4.6;1.6;;;;;;;15.36;58.37598;1005.793;;;;
2019/10/03 11:56:54;;;;;;;4.1;1.6;;;;;;;15.86;58.32617;1005.712;;;;
2019/10/03 11:59:22;;;;;;;4.4;1.8;;;;;;;16.04;56.55273;1005.701;;;;
2019/10/03 12:01:44;;;;;;;6.6;1.7;;;;;;;16.03;56.15918;1005.706;;;;
2019/10/03 12:04:10;;;;;;;4.5;1.7;;;;;;;16.1;55.77148;1005.721;;;;
2019/10/03 12:06:35;;;;;;;4.7;1.7;;;;;;;16.09;56.14258;1005.731;;;;
2019/10/03 12:09:00;;;;;;;4.9;1.6;;;;;;;15.9;56.66211;1005.664;;;;
2019/10/03 12:11:25;;;;;;;4.8;1.4;;;;;;;15.73;56.50195;1005.717;;;;
2019/10/03 12:13:50;;;;;;;6.3;1.7;;;;;;;15.47;57.33789;1005.714;;;;
2019/10/03 12:16:16;;;;;;;6.3;1.8;;;;;;;15.79;57.74902;1005.702;;;;
2019/10/03 12:18:41;;;;;;;4.2;1.7;;;;;;;15.59;58.27832;1005.758;;;;
2019/10/03 12:21:06;;;;;;;5.6;1.7;;;;;;;15.8;56.74316;1005.671;;;;
2019/10/03 12:23:31;;;;;;;5.5;1.5;;;;;;;15.23;58.57715;1005.666;;;;
2019/10/03 12:25:56;;;;;;;8;1.8;;;;;;;14.93;58.98926;1005.672;;;;
2019/10/03 12:28:21;;;;;;;4.2;1.5;;;;;;;15.02;58.87207;1005.714;;;;
2019/10/03 12:30:46;;;;;;;4.6;1.7;;;;;;;14.8;59.6543;1005.628;;;;
2019/10/03 12:33:11;;;;;;;4.1;1.8;;;;;;;14.53;60.12402;1005.622;;;;
2019/10/03 12:35:37;;;;;;;7.8;2;;;;;;;14.74;59.4834;1005.641;;;;
2019/10/03 12:38:02;;;;;;;5.4;1.6;;;;;;;14.73;60.29102;1005.665;;;;
2019/10/03 12:40:27;;;;;;;3.1;1.4;;;;;;;14.39;61.46875;1005.669;;;;
2019/10/03 12:42:52;;;;;;;7.1;2.1;;;;;;;14.41;61.10156;1005.702;;;;
2019/10/03 12:45:17;;;;;;;6;1.6;;;;;;;14.55;60.13965;1005.629;;;;
2019/10/03 12:47:43;;;;;;;4;1.5;;;;;;;14.45;61.07324;1005.601;;;;
2019/10/03 12:50:08;;;;;;;4.7;1.7;;;;;;;14.61;60.50488;1005.607;;;;
2019/10/03 12:52:33;;;;;;;5.3;1.5;;;;;;;14.68;60.81543;1005.559;;;;
2019/10/03 12:54:58;;;;;;;4.5;1.6;;;;;;;14.71;60.72656;1005.544;;;;
2019/10/03 12:57:23;;;;;;;3.5;1.3;;;;;;;14.57;61.01953;1005.556;;;;
2019/10/03 12:59:49;;;;;;;3.9;1.5;;;;;;;14.62;60.23047;1005.509;;;;
2019/10/03 13:02:14;;;;;;;3.8;1.5;;;;;;;14.5;60.59375;1005.434;;;;
2019/10/03 13:04:39;;;;;;;3.6;1.6;;;;;;;14.35;60.67676;1005.437;;;;
2019/10/03 13:07:04;;;;;;;4;1.5;;;;;;;14.54;59.3623;1005.362;;;;
2019/10/03 13:09:29;;;;;;;5.4;1.7;;;;;;;14.48;58.98535;1005.3;;;;
2019/10/03 13:11:54;;;;;;;4.4;1.6;;;;;;;14.46;59.4668;1005.296;;;;
2019/10/03 13:14:19;;;;;;;4.8;1.5;;;;;;;14.58;59.48438;1005.207;;;;
2019/10/03 13:16:45;;;;;;;4.8;1.5;;;;;;;14.68;58.75781;1005.193;;;;
2019/10/03 13:19:10;;;;;;;3.9;1.4;;;;;;;14.54;59.20215;1005.112;;;;
2019/10/03 13:21:35;;;;;;;6.3;1.7;;;;;;;14.58;58.25977;1005.094;;;;
2019/10/03 13:24:00;;;;;;;4.3;1.3;;;;;;;14.51;58.78027;1005.068;;;;
2019/10/03 13:26:25;;;;;;;4.8;1.6;;;;;;;14.57;58.50195;1005.025;;;;
2019/10/03 13:28:50;;;;;;;4.2;1.3;;;;;;;14.61;58.29785;1005.011;;;;
2019/10/03 13:31:15;;;;;;;3.7;1.3;;;;;;;14.61;59.29199;1004.965;;;;
2019/10/03 13:33:41;;;;;;;4;1.6;;;;;;;14.69;59.46582;1004.968;;;;
2019/10/03 13:36:06;;;;;;;3.3;1.5;;;;;;;14.86;58.74805;1004.93;;;;
2019/10/03 13:38:31;;;;;;;4.8;1.6;;;;;;;15.15;58.53223;1004.893;;;;
2019/10/03 13:40:56;;;;;;;2.9;1.6;;;;;;;15.24;58.5791;1004.855;;;;
2019/10/03 13:43:21;;;;;;;4.7;1.4;;;;;;;15.29;57.52148;1004.871;;;;
2019/10/03 13:45:47;;;;;;;4.8;1.4;;;;;;;15.65;56.10938;1004.812;;;;
2019/10/03 13:48:12;;;;;;;4.7;1.7;;;;;;;15.33;56.46094;1004.808;;;;
2019/10/03 13:50:37;;;;;;;6;1.6;;;;;;;15.41;56.77246;1004.719;;;;
2019/10/03 13:53:02;;;;;;;4.7;1.4;;;;;;;15.09;57.41406;1004.794;;;;
2019/10/03 13:55:27;;;;;;;4.4;1.4;;;;;;;15.06;57.7793;1004.723;;;;
2019/10/03 13:57:52;;;;;;;5;1.5;;;;;;;14.78;58.18164;1004.753;;;;
2019/10/03 14:00:17;;;;;;;3.8;1.2;;;;;;;14.95;57.86914;1004.744;;;;
2019/10/03 14:02:42;;;;;;;3.5;1.3;;;;;;;15.22;57.26855;1004.67;;;;
2019/10/03 14:05:10;;;;;;;4.5;1.3;;;;;;;15.27;57.59961;1004.694;;;;
2019/10/03 14:10:06;;;;;;;3.6;1.6;;;;;;;15.36;57.73926;1004.64;;;;
2019/10/03 14:12:23;;;;;;;3.6;1.6;;;;;;;15.14;58.41602;1004.615;;;;
2019/10/03 14:14:49;;;;;;;5;1.4;;;;;;;15.16;57.68945;1004.646;;;;
2019/10/03 14:17:14;;;;;;;4.9;1.3;;;;;;;15.39;56.88574;1004.648;;;;
2019/10/03 14:19:39;;;;;;;4.1;1.3;;;;;;;15.59;56.65723;1004.608;;;;
2019/10/03 14:22:04;;;;;;;4;1.4;;;;;;;15.36;57.18359;1004.581;;;;
2019/10/03 14:24:30;;;;;;;4.1;1.3;;;;;;;15.38;57.29004;1004.612;;;;
2019/10/03 14:26:55;;;;;;;4.6;1.4;;;;;;;15.46;57.68164;1004.59;;;;
2019/10/03 14:29:20;;;;;;;3.5;1.6;;;;;;;15.49;56.65527;1004.634;;;;
2019/10/03 14:31:45;;;;;;;4.9;1.5;;;;;;;15.09;57.37793;1004.616;;;;
2019/10/03 14:34:10;;;;;;;4.6;1.4;;;;;;;15.28;56.47754;1004.637;;;;
2019/10/03 14:36:35;;;;;;;6.4;1.9;;;;;;;15.44;55.91895;1004.591;;;;
2019/10/03 14:39:00;;;;;;;5.5;1.4;;;;;;;15.44;56.42969;1004.579;;;;
2019/10/03 14:41:25;;;;;;;3.7;1.5;;;;;;;15.11;57.54395;1004.527;;;;
2019/10/03 14:43:51;;;;;;;4.3;1.5;;;;;;;15.28;57.12695;1004.508;;;;
2019/10/03 14:46:16;;;;;;;5.6;1.6;;;;;;;15.27;57.17188;1004.473;;;;
2019/10/03 14:48:41;;;;;;;4.1;1.4;;;;;;;15.2;56.89453;1004.498;;;;
2019/10/03 14:51:06;;;;;;;4.5;1.6;;;;;;;14.98;57.52637;1004.464;;;;
2019/10/03 14:53:31;;;;;;;4.7;1.6;;;;;;;14.99;57.36621;1004.479;;;;
2019/10/03 14:55:57;;;;;;;3.1;1.3;;;;;;;15.17;56.9502;1004.43;;;;
2019/10/03 14:58:21;;;;;;;3.9;1.5;;;;;;;15.11;57.12891;1004.4;;;;
2019/10/03 15:00:46;;;;;;;5.1;1.5;;;;;;;15.03;57.6377;1004.39;;;;
2019/10/03 15:03:11;;;;;;;3.2;1.2;;;;;;;15.26;57.62207;1004.371;;;;
2019/10/03 15:05:37;;;;;;;6.2;1.5;;;;;;;15.24;57.60645;1004.334;;;;
2019/10/03 15:08:02;;;;;;;4.9;1.5;;;;;;;15.3;56.93262;1004.33;;;;
2019/10/03 15:10:27;;;;;;;3;1.3;;;;;;;15.25;57.80469;1004.353;;;;
2019/10/03 15:12:52;;;;;;;3.7;1.5;;;;;;;15.16;57.2373;1004.351;;;;
2019/10/03 15:15:17;;;;;;;4.2;1.2;;;;;;;15.05;57.87012;1004.324;;;;
2019/10/03 15:17:42;;;;;;;3.8;1.6;;;;;;;15.13;57.1543;1004.303;;;;
2019/10/03 15:20:07;;;;;;;5.4;1.9;;;;;;;15.42;56.63574;1004.313;;;;
2019/10/03 15:22:32;;;;;;;4.7;2;;;;;;;15.41;57.01563;1004.304;;;;
2019/10/03 15:24:57;;;;;;;4.5;2;;;;;;;15.5;57.6416;1004.222;;;;
2019/10/03 15:27:28;;;;;;;3.1;1.5;;;;;;;15.35;56.74121;1004.313;;;;
2019/10/03 15:32:24;;;;;;;5.6;1.8;;;;;;;15.07;57.67676;1004.288;;;;
2019/10/03 15:34:39;;;;;;;6.2;1.7;;;;;;;14.93;58.61914;1004.272;;;;
2019/10/03 15:37:04;;;;;;;5.1;1.9;;;;;;;15.14;57.90625;1004.297;;;;
2019/10/03 15:39:30;;;;;;;3.7;1.5;;;;;;;15.16;58.03613;1004.31;;;;